createdAt,value
2022-08-28T00:01:24.804Z,4.28
2022-08-28T00:03:51.361Z,3.88
2022-08-28T00:06:17.886Z,3.85
2022-08-28T00:08:44.509Z,3.78
2022-08-28T00:11:11.097Z,4.13
2022-08-28T00:13:37.679Z,4.20
2022-08-28T00:16:04.731Z,4.20
2022-08-28T00:18:32.750Z,4.07
2022-08-28T00:21:00.172Z,4.07
2022-08-28T00:23:28.419Z,4.00
2022-08-28T00:26:09.056Z,3.85
2022-08-28T00:28:35.585Z,3.97
2022-08-28T00:31:02.265Z,3.90
2022-08-28T00:33:32.212Z,4.30
2022-08-28T00:36:01.253Z,3.97
2022-08-28T00:38:29.577Z,4.00
2022-08-28T00:41:00.316Z,4.13
2022-08-28T00:43:34.836Z,4.60
2022-08-28T00:46:01.954Z,4.32
2022-08-28T00:48:28.847Z,4.05
2022-08-28T00:50:56.873Z,3.83
2022-08-28T00:53:32.871Z,4.15
2022-08-28T00:56:04.186Z,3.83
2022-08-28T00:58:37.986Z,3.80
2022-08-28T01:01:04.963Z,3.55
2022-08-28T01:03:31.617Z,3.75
2022-08-28T01:05:58.336Z,3.65
2022-08-28T01:08:24.926Z,4.28
2022-08-28T01:11:01.407Z,3.83
2022-08-28T01:13:29.766Z,3.90
2022-08-28T01:15:56.982Z,3.22
2022-08-28T01:18:25.010Z,3.78
2022-08-28T01:20:58.906Z,3.88
2022-08-28T01:23:36.841Z,3.30
2022-08-28T01:26:10.746Z,3.58
2022-08-28T01:28:38.759Z,3.67
2022-08-28T01:31:05.356Z,3.40
2022-08-28T01:33:31.966Z,3.53
2022-08-28T01:35:58.470Z,3.42
2022-08-28T01:38:26.899Z,3.65
2022-08-28T01:40:57.365Z,3.40
2022-08-28T01:46:06.924Z,3.65
2022-08-28T01:48:36.004Z,3.58
2022-08-28T01:51:03.120Z,3.20
2022-08-28T01:53:32.513Z,3.60
2022-08-28T01:56:01.784Z,3.50
2022-08-28T01:58:30.105Z,3.45
2022-08-28T02:00:57.288Z,3.55
2022-08-28T02:03:24.345Z,3.58
2022-08-28T02:05:51.087Z,3.47
2022-08-28T02:08:17.668Z,3.30
2022-08-28T02:10:44.425Z,3.15
2022-08-28T02:13:12.931Z,3.63
2022-08-28T02:15:41.652Z,3.40
2022-08-28T02:18:08.528Z,3.58
2022-08-28T02:20:35.945Z,3.17
2022-08-28T02:23:02.549Z,3.17
2022-08-28T02:25:29.387Z,3.63
2022-08-28T02:27:56.566Z,3.00
2022-08-28T02:30:24.613Z,3.40
2022-08-28T02:32:51.751Z,3.53
2022-08-28T02:35:20.913Z,3.28
2022-08-28T02:37:47.753Z,3.38
2022-08-28T02:40:16.518Z,2.80
2022-08-28T02:42:43.624Z,3.20
2022-08-28T02:45:12.559Z,3.33
2022-08-28T02:47:42.710Z,3.05
2022-08-28T02:50:11.457Z,3.10
2022-08-28T02:52:38.594Z,3.60
2022-08-28T02:55:06.542Z,3.03
2022-08-28T02:57:33.485Z,3.10
2022-08-28T03:00:00.001Z,3.70
2022-08-28T03:02:26.665Z,3.80
2022-08-28T03:04:54.590Z,3.20
2022-08-28T03:07:21.126Z,3.90
2022-08-28T03:09:47.669Z,3.13
2022-08-28T03:12:14.214Z,3.40
2022-08-28T03:14:40.732Z,3.42
2022-08-28T03:17:07.343Z,3.13
2022-08-28T03:19:34.522Z,3.25
2022-08-28T03:22:02.464Z,3.13
2022-08-28T03:24:29.008Z,3.60
2022-08-28T03:26:55.546Z,3.38
2022-08-28T03:29:22.149Z,2.83
2022-08-28T03:31:48.819Z,3.30
2022-08-28T03:34:15.368Z,3.53
2022-08-28T03:36:41.919Z,2.80
2022-08-28T03:39:10.214Z,3.35
2022-08-28T03:41:36.765Z,2.95
2022-08-28T03:44:03.770Z,2.80
2022-08-28T03:46:31.998Z,3.13
2022-08-28T03:48:59.357Z,3.05
2022-08-28T03:51:34.058Z,2.90
2022-08-28T03:54:01.975Z,2.70
2022-08-28T03:56:30.516Z,2.78
2022-08-28T03:58:59.492Z,2.80
2022-08-28T04:01:26.295Z,2.58
2022-08-28T04:03:53.008Z,3.20
2022-08-28T04:06:19.978Z,3.42
2022-08-28T04:08:47.374Z,2.72
2022-08-28T04:11:13.942Z,2.90
2022-08-28T04:13:41.966Z,2.80
2022-08-28T04:16:11.743Z,2.70
2022-08-28T04:18:40.777Z,2.65
2022-08-28T04:21:09.130Z,3.70
2022-08-28T04:23:37.481Z,2.47
2022-08-28T04:26:04.514Z,2.53
2022-08-28T04:28:31.401Z,2.75
2022-08-28T04:30:59.748Z,2.97
2022-08-28T04:33:28.457Z,2.50
2022-08-28T04:35:55.912Z,2.33
2022-08-28T04:38:22.776Z,2.45
2022-08-28T04:40:49.569Z,2.38
2022-08-28T04:43:16.210Z,2.40
2022-08-28T04:45:45.262Z,2.53
2022-08-28T04:48:14.430Z,2.35
2022-08-28T04:50:41.656Z,1.98
2022-08-28T04:53:08.223Z,2.20
2022-08-28T04:55:53.623Z,2.28
2022-08-28T04:58:23.741Z,2.50
2022-08-28T05:00:52.319Z,2.00
2022-08-28T05:03:21.028Z,2.20
2022-08-28T05:05:50.797Z,2.00
2022-08-28T05:08:19.133Z,2.00
2022-08-28T05:10:46.374Z,2.30
2022-08-28T05:13:14.517Z,2.20
2022-08-28T05:15:41.857Z,2.03
2022-08-28T05:18:08.684Z,1.80
2022-08-28T05:20:37.339Z,2.08
2022-08-28T05:23:04.877Z,1.90
2022-08-28T05:25:35.031Z,1.98
2022-08-28T05:28:01.820Z,1.65
2022-08-28T05:30:28.353Z,2.30
2022-08-28T05:32:54.940Z,1.73
2022-08-28T05:35:22.142Z,2.00
2022-08-28T05:37:50.434Z,1.77
2022-08-28T05:40:17.135Z,1.90
2022-08-28T05:42:43.785Z,2.63
2022-08-28T05:45:10.634Z,1.88
2022-08-28T05:47:37.238Z,1.90
2022-08-28T05:50:04.339Z,2.15
2022-08-28T05:52:30.938Z,2.20
2022-08-28T05:54:58.806Z,2.00
2022-08-28T05:57:25.425Z,2.00
2022-08-28T05:59:52.112Z,2.30
2022-08-28T06:02:18.726Z,1.83
2022-08-28T06:04:45.439Z,2.20
2022-08-28T06:07:11.993Z,2.33
2022-08-28T06:09:38.675Z,2.85
2022-08-28T06:12:07.106Z,2.17
2022-08-28T06:14:34.497Z,2.28
2022-08-28T06:17:02.005Z,3.13
2022-08-28T06:19:30.591Z,2.88
2022-08-28T06:22:00.013Z,2.30
2022-08-28T06:24:28.348Z,2.70
2022-08-28T06:26:58.108Z,2.60
2022-08-28T06:29:27.758Z,2.78
2022-08-28T06:31:56.859Z,2.42
2022-08-28T06:34:23.523Z,2.80
2022-08-28T06:36:53.828Z,3.45
2022-08-28T06:39:21.896Z,3.90
2022-08-28T06:41:48.568Z,2.58
2022-08-28T06:44:18.621Z,2.28
2022-08-28T06:46:48.875Z,2.42
2022-08-28T06:49:15.437Z,2.60
2022-08-28T06:51:42.126Z,3.03
2022-08-28T06:54:09.103Z,2.70
2022-08-28T06:56:35.747Z,2.83
2022-08-28T06:59:02.527Z,2.15
2022-08-28T07:01:31.508Z,2.65
2022-08-28T07:04:01.084Z,2.90
2022-08-28T07:06:30.536Z,3.00
2022-08-28T07:08:57.092Z,2.90
2022-08-28T07:11:25.965Z,2.67
2022-08-28T07:13:54.083Z,2.95
2022-08-28T07:16:22.696Z,3.38
2022-08-28T07:18:49.594Z,2.63
2022-08-28T07:21:17.808Z,3.25
2022-08-28T07:23:44.952Z,2.90
2022-08-28T07:26:15.344Z,2.85
2022-08-28T07:28:42.109Z,3.28
2022-08-28T07:31:10.977Z,2.80
2022-08-28T07:33:38.035Z,3.00
2022-08-28T07:36:06.326Z,2.47
2022-08-28T07:38:34.783Z,2.63
2022-08-28T07:41:01.395Z,3.33
2022-08-28T07:43:27.991Z,2.75
2022-08-28T07:45:58.371Z,2.53
2022-08-28T07:48:25.039Z,2.70
2022-08-28T07:50:51.985Z,2.80
2022-08-28T07:53:18.551Z,2.50
2022-08-28T07:55:49.418Z,2.53
2022-08-28T07:58:16.198Z,3.10
2022-08-28T08:00:42.746Z,2.92
2022-08-28T08:03:09.433Z,3.13
2022-08-28T08:05:36.041Z,3.40
2022-08-28T08:08:03.504Z,2.55
2022-08-28T08:10:33.931Z,2.97
2022-08-28T08:13:02.860Z,2.95
2022-08-28T08:15:31.365Z,2.55
2022-08-28T08:17:58.108Z,2.55
2022-08-28T08:20:24.675Z,2.75
2022-08-28T08:22:51.241Z,2.70
2022-08-28T08:25:17.869Z,2.65
2022-08-28T08:27:44.506Z,2.70
2022-08-28T08:30:13.014Z,2.78
2022-08-28T08:32:39.610Z,2.75
2022-08-28T08:35:06.601Z,2.75
2022-08-28T08:37:33.216Z,3.15
2022-08-28T08:39:59.805Z,3.00
2022-08-28T08:42:29.855Z,2.70
2022-08-28T08:44:58.547Z,2.50
2022-08-28T08:47:36.619Z,3.33
2022-08-28T08:50:07.808Z,3.00
2022-08-28T08:52:49.985Z,2.60
2022-08-28T08:55:22.329Z,2.30
2022-08-28T08:57:56.932Z,3.13
2022-08-28T09:00:24.532Z,3.75
2022-08-28T09:03:00.248Z,3.38
2022-08-28T09:05:40.258Z,3.08
2022-08-28T09:08:12.490Z,4.30
2022-08-28T09:10:47.574Z,3.05
2022-08-28T09:13:25.874Z,2.88
2022-08-28T09:15:52.696Z,2.33
2022-08-28T09:18:23.810Z,2.88
2022-08-28T09:20:52.576Z,2.53
2022-08-28T09:23:20.966Z,2.67
2022-08-28T09:25:55.547Z,2.58
2022-08-28T09:28:25.006Z,3.22
2022-08-28T09:30:58.929Z,3.13
2022-08-28T09:33:36.841Z,2.85
2022-08-28T09:36:28.555Z,3.08
2022-08-28T09:39:11.340Z,2.90
2022-08-28T09:41:52.012Z,2.92
2022-08-28T09:44:18.591Z,2.67
2022-08-28T09:46:48.462Z,3.10
2022-08-28T09:49:23.684Z,2.58
2022-08-28T09:51:50.336Z,2.35
2022-08-28T09:54:21.806Z,2.20
2022-08-28T09:56:49.745Z,2.17
2022-08-28T09:59:18.983Z,2.67
2022-08-28T10:01:58.750Z,2.17
2022-08-28T10:04:54.383Z,2.20
2022-08-28T10:07:29.768Z,2.20
2022-08-28T10:10:09.631Z,1.90
2022-08-28T10:12:42.974Z,1.80
2022-08-28T10:15:17.889Z,1.90
2022-08-28T10:18:04.192Z,1.90
2022-08-28T10:20:44.805Z,2.28
2022-08-28T10:23:19.243Z,2.22
2022-08-28T10:25:55.501Z,1.88
2022-08-28T10:28:34.263Z,2.17
2022-08-28T10:31:13.007Z,1.75
2022-08-28T10:33:55.821Z,1.95
2022-08-28T10:36:34.780Z,3.08
2022-08-28T10:39:14.518Z,1.70
2022-08-28T10:41:45.592Z,2.13
2022-08-28T10:44:17.806Z,2.30
2022-08-28T10:46:49.446Z,1.85
2022-08-28T10:49:23.283Z,2.03
2022-08-28T10:51:54.872Z,2.15
2022-08-28T10:54:27.570Z,1.92
2022-08-28T10:56:59.750Z,2.40
2022-08-28T10:59:32.223Z,1.77
2022-08-28T11:01:59.838Z,1.83
2022-08-28T11:04:29.371Z,1.80
2022-08-28T11:07:01.004Z,2.00
2022-08-28T11:09:35.322Z,1.95
2022-08-28T11:12:05.288Z,1.90
2022-08-28T11:14:34.966Z,1.70
2022-08-28T11:17:04.577Z,1.73
2022-08-28T11:19:56.537Z,1.85
2022-08-28T11:22:28.426Z,1.48
2022-08-28T11:25:09.702Z,2.25
2022-08-28T11:27:37.848Z,2.78
2022-08-28T11:30:30.977Z,2.15
2022-08-28T11:33:04.299Z,1.77
2022-08-28T11:35:45.072Z,1.63
2022-08-28T11:38:51.564Z,2.00
2022-08-28T11:41:20.774Z,1.40
2022-08-28T11:43:49.087Z,1.63
2022-08-28T11:46:34.879Z,2.22
2022-08-28T11:49:03.422Z,1.80
2022-08-28T11:51:56.141Z,1.63
2022-08-28T11:54:47.056Z,1.70
2022-08-28T11:57:17.922Z,1.95
2022-08-28T12:00:06.796Z,1.95
2022-08-28T12:02:49.845Z,1.52
2022-08-28T12:05:38.691Z,1.70
2022-08-28T12:08:05.552Z,1.48
2022-08-28T12:10:57.586Z,1.80
2022-08-28T12:13:52.649Z,1.48
2022-08-28T12:16:19.444Z,1.50
2022-08-28T12:19:04.047Z,1.83
2022-08-28T12:21:37.333Z,2.13
2022-08-28T12:24:14.720Z,1.58
2022-08-28T12:26:47.589Z,1.38
2022-08-28T12:29:27.827Z,1.73
2022-08-28T12:32:07.308Z,1.65
2022-08-28T12:34:46.342Z,1.30
2022-08-28T12:37:39.874Z,1.33
2022-08-28T12:40:21.987Z,1.33
2022-08-28T12:42:55.442Z,1.38
2022-08-28T12:45:29.669Z,1.67
2022-08-28T12:47:59.575Z,1.55
2022-08-28T12:50:32.458Z,1.52
2022-08-28T12:53:02.029Z,1.50
2022-08-28T12:55:28.925Z,1.90
2022-08-28T12:57:57.211Z,1.58
2022-08-28T13:00:26.222Z,1.75
2022-08-28T13:02:54.805Z,1.83
2022-08-28T13:05:32.212Z,1.67
2022-08-28T13:08:01.137Z,1.90
2022-08-28T13:10:30.663Z,1.55
2022-08-28T13:13:05.459Z,1.15
2022-08-28T13:15:47.629Z,1.33
2022-08-28T13:18:33.839Z,1.27
2022-08-28T13:21:34.081Z,1.33
2022-08-28T13:24:26.250Z,1.30
2022-08-28T13:27:02.859Z,1.40
2022-08-28T13:29:31.634Z,1.10
2022-08-28T13:32:00.082Z,1.48
2022-08-28T13:34:28.248Z,1.10
2022-08-28T13:36:57.004Z,1.10
2022-08-28T13:39:23.825Z,1.27
2022-08-28T13:41:53.799Z,1.10
2022-08-28T13:44:34.307Z,1.30
2022-08-28T13:47:03.477Z,1.35
2022-08-28T13:49:30.108Z,1.10
2022-08-28T13:51:58.819Z,1.35
2022-08-28T13:54:25.996Z,1.70
2022-08-28T13:56:54.930Z,1.38
2022-08-28T13:59:22.132Z,1.05
2022-08-28T14:01:54.503Z,1.27
2022-08-28T14:04:21.212Z,1.30
2022-08-28T14:06:48.267Z,2.15
2022-08-28T14:09:14.929Z,1.10
2022-08-28T14:11:41.658Z,1.45
2022-08-28T14:14:08.349Z,1.13
2022-08-28T14:16:39.585Z,1.25
2022-08-28T14:19:08.218Z,1.10
2022-08-28T14:21:37.066Z,1.70
2022-08-28T14:24:04.768Z,1.48
2022-08-28T14:26:31.518Z,1.40
2022-08-28T14:28:58.663Z,1.30
2022-08-28T14:31:26.573Z,1.60
2022-08-28T14:33:53.723Z,1.40
2022-08-28T14:36:24.279Z,1.33
2022-08-28T14:38:54.210Z,1.02
2022-08-28T14:41:22.054Z,1.23
2022-08-28T14:43:48.620Z,1.05
2022-08-28T14:46:16.312Z,1.40
2022-08-28T14:48:42.904Z,1.20
2022-08-28T14:51:09.596Z,1.17
2022-08-28T14:53:37.485Z,1.42
2022-08-28T14:56:06.338Z,1.40
2022-08-28T14:58:33.691Z,1.35
2022-08-28T15:01:01.131Z,1.30
2022-08-28T15:03:28.136Z,1.60
2022-08-28T15:06:00.113Z,1.05
2022-08-28T15:08:26.850Z,1.30
2022-08-28T15:10:55.381Z,1.30
2022-08-28T15:13:22.026Z,1.33
2022-08-28T15:15:48.681Z,1.15
2022-08-28T15:18:15.769Z,1.30
2022-08-28T15:20:45.134Z,1.30
2022-08-28T15:23:13.527Z,1.38
2022-08-28T15:25:40.656Z,1.20
2022-08-28T15:28:09.627Z,1.40
2022-08-28T15:30:36.356Z,1.27
2022-08-28T15:33:03.196Z,1.30
2022-08-28T15:35:29.731Z,1.10
2022-08-28T15:37:56.412Z,1.00
2022-08-28T15:40:23.224Z,1.55
2022-08-28T15:42:49.898Z,1.05
2022-08-28T15:45:17.834Z,1.20
2022-08-28T15:47:44.496Z,1.10
2022-08-28T15:50:11.428Z,1.52
2022-08-28T15:52:38.205Z,1.33
2022-08-28T15:55:05.399Z,1.10
2022-08-28T15:57:32.479Z,1.20
2022-08-28T15:59:59.046Z,1.10
2022-08-28T16:02:27.156Z,1.13
2022-08-28T16:04:54.113Z,1.00
2022-08-28T16:07:22.146Z,0.98
2022-08-28T16:09:49.259Z,1.05
2022-08-28T16:12:16.332Z,1.17
2022-08-28T16:14:42.942Z,0.90
2022-08-28T16:17:11.081Z,1.20
2022-08-28T16:19:40.060Z,0.88
2022-08-28T16:22:07.370Z,1.20
2022-08-28T16:24:33.960Z,1.40
2022-08-28T16:27:00.613Z,1.40
2022-08-28T16:29:27.173Z,1.20
2022-08-28T16:31:53.878Z,1.10
2022-08-28T16:34:21.009Z,1.30
2022-08-28T16:36:49.021Z,1.00
2022-08-28T16:39:15.786Z,1.13
2022-08-28T16:41:42.994Z,1.17
2022-08-28T16:44:09.591Z,0.95
2022-08-28T16:46:36.346Z,1.20
2022-08-28T16:49:03.845Z,1.00
2022-08-28T16:51:30.787Z,1.27
2022-08-28T16:53:58.741Z,2.05
2022-08-28T16:56:25.438Z,1.00
2022-08-28T16:58:53.025Z,1.23
2022-08-28T17:01:21.421Z,0.95
2022-08-28T17:03:51.866Z,1.17
2022-08-28T17:06:20.631Z,1.20
2022-08-28T17:08:47.326Z,1.20
2022-08-28T17:11:15.840Z,1.05
2022-08-28T17:13:42.970Z,1.02
2022-08-28T17:16:10.364Z,1.10
2022-08-28T17:18:39.098Z,0.98
2022-08-28T17:21:16.609Z,1.00
2022-08-28T17:23:43.337Z,0.90
2022-08-28T17:26:10.299Z,1.02
2022-08-28T17:28:38.528Z,1.10
2022-08-28T17:31:05.377Z,1.38
2022-08-28T17:33:31.944Z,0.88
2022-08-28T17:35:58.490Z,1.20
2022-08-28T17:38:26.081Z,1.15
2022-08-28T17:40:52.634Z,1.27
2022-08-28T17:43:19.284Z,1.30
2022-08-28T17:45:47.436Z,1.20
2022-08-28T17:48:14.093Z,1.25
2022-08-28T17:50:40.762Z,1.30
2022-08-28T17:53:07.310Z,1.10
2022-08-28T17:55:33.998Z,1.35
2022-08-28T17:58:00.586Z,0.98
2022-08-28T18:00:27.159Z,1.77
2022-08-28T18:02:55.045Z,1.20
2022-08-28T18:05:21.873Z,1.25
2022-08-28T18:07:48.603Z,1.30
2022-08-28T18:10:15.480Z,1.20
2022-08-28T18:12:42.127Z,1.25
2022-08-28T18:15:10.281Z,1.40
2022-08-28T18:17:37.449Z,1.30
2022-08-28T18:20:07.681Z,1.20
2022-08-28T18:22:34.647Z,1.23
2022-08-28T18:25:01.209Z,1.33
2022-08-28T18:27:27.960Z,1.20
2022-08-28T18:29:54.502Z,1.10
2022-08-28T18:32:21.051Z,1.33
2022-08-28T18:34:47.755Z,1.25
2022-08-28T18:37:16.259Z,0.93
2022-08-28T18:39:43.391Z,1.23
2022-08-28T18:42:11.162Z,1.35
2022-08-28T18:44:37.757Z,1.10
2022-08-28T18:47:04.562Z,1.08
2022-08-28T18:49:31.157Z,1.17
2022-08-28T18:51:57.721Z,1.45
2022-08-28T18:54:25.625Z,1.30
2022-08-28T18:56:57.360Z,1.15
2022-08-28T18:59:28.157Z,1.30
2022-08-28T19:01:54.786Z,1.42
2022-08-28T19:04:21.489Z,1.40
2022-08-28T19:06:48.072Z,1.10
2022-08-28T19:09:19.203Z,1.33
2022-08-28T19:11:48.934Z,1.05
2022-08-28T19:14:15.680Z,1.23
2022-08-28T19:16:42.313Z,0.98
2022-08-28T19:19:08.999Z,1.27
2022-08-28T19:21:36.717Z,1.30
2022-08-28T19:24:03.630Z,1.20
2022-08-28T19:26:30.874Z,1.35
2022-08-28T19:28:59.267Z,1.23
2022-08-28T19:31:27.049Z,1.00
2022-08-28T19:33:54.148Z,1.20
2022-08-28T19:36:21.105Z,1.20
2022-08-28T19:38:47.726Z,1.15
2022-08-28T19:41:14.448Z,1.30
2022-08-28T19:43:43.022Z,1.15
2022-08-28T19:46:18.482Z,1.30
2022-08-28T19:48:47.734Z,1.30
2022-08-28T19:51:17.593Z,1.40
2022-08-28T19:53:54.645Z,1.30
2022-08-28T19:56:23.772Z,1.20
2022-08-28T19:58:50.614Z,1.10
2022-08-28T20:01:18.660Z,1.60
2022-08-28T20:03:45.212Z,1.13
2022-08-28T20:06:11.882Z,1.17
2022-08-28T20:08:38.460Z,1.23
2022-08-28T20:11:05.090Z,1.40
2022-08-28T20:13:31.775Z,1.25
2022-08-28T20:16:03.893Z,1.25
2022-08-28T20:18:32.012Z,1.20
2022-08-28T20:20:58.882Z,1.45
2022-08-28T20:23:25.543Z,1.33
2022-08-28T20:25:52.930Z,1.38
2022-08-28T20:28:19.909Z,0.90
2022-08-28T20:30:46.698Z,1.13
2022-08-28T20:33:13.871Z,1.13
2022-08-28T20:35:41.832Z,1.10
2022-08-28T20:38:08.504Z,1.13
2022-08-28T20:40:35.130Z,1.55
2022-08-28T20:43:01.941Z,1.30
2022-08-28T20:45:28.586Z,1.02
2022-08-28T20:47:55.252Z,1.25
2022-08-28T20:50:21.837Z,1.40
2022-08-28T20:52:49.873Z,1.40
2022-08-28T20:55:16.470Z,1.30
2022-08-28T20:57:43.067Z,1.17
2022-08-28T21:00:11.235Z,1.17
2022-08-28T21:02:38.111Z,1.27
2022-08-28T21:05:05.735Z,1.30
2022-08-28T21:07:32.438Z,1.50
2022-08-28T21:10:07.199Z,1.27
2022-08-28T21:12:35.542Z,1.23
2022-08-28T21:15:02.850Z,1.40
2022-08-28T21:17:30.708Z,1.20
2022-08-28T21:19:59.532Z,1.30
2022-08-28T21:22:26.365Z,1.20
2022-08-28T21:24:52.919Z,1.25
2022-08-28T21:27:20.952Z,1.25
2022-08-28T21:29:47.718Z,1.58
2022-08-28T21:32:14.524Z,1.10
2022-08-28T21:34:41.054Z,1.50
2022-08-28T21:37:07.752Z,1.30
2022-08-28T21:39:34.921Z,1.20
2022-08-28T21:42:01.525Z,1.15
2022-08-28T21:44:29.717Z,1.30
2022-08-28T21:46:56.358Z,1.15
2022-08-28T21:49:23.007Z,1.33
2022-08-28T21:51:51.570Z,1.17
2022-08-28T21:54:18.308Z,1.15
2022-08-28T21:56:45.283Z,1.48
2022-08-28T21:59:12.341Z,1.30
2022-08-28T22:01:40.397Z,1.10
2022-08-28T22:04:07.298Z,1.40
2022-08-28T22:06:33.994Z,1.05
2022-08-28T22:09:00.902Z,1.17
2022-08-28T22:11:28.117Z,1.35
2022-08-28T22:13:55.725Z,1.50
2022-08-28T22:16:22.915Z,1.35
2022-08-28T22:18:51.283Z,1.33
2022-08-28T22:21:21.968Z,1.38
2022-08-28T22:23:48.612Z,1.40
2022-08-28T22:26:17.829Z,1.50
2022-08-28T22:28:44.976Z,1.48
2022-08-28T22:31:11.622Z,1.27
2022-08-28T22:33:38.629Z,1.30
2022-08-28T22:36:07.060Z,1.30
2022-08-28T22:38:33.662Z,1.83
2022-08-28T22:41:00.228Z,1.73
2022-08-28T22:43:26.902Z,1.30
2022-08-28T22:45:53.649Z,1.50
2022-08-28T22:48:20.361Z,1.20
2022-08-28T22:50:47.841Z,1.58
2022-08-28T22:53:17.922Z,1.60
2022-08-28T22:55:44.701Z,1.20
2022-08-28T22:58:11.798Z,1.30
2022-08-28T23:00:39.686Z,1.83
2022-08-28T23:03:06.392Z,1.25
2022-08-28T23:05:33.519Z,1.20
2022-08-28T23:08:00.210Z,1.30
2022-08-28T23:10:48.393Z,1.42
2022-08-28T23:13:15.242Z,1.38
2022-08-28T23:15:42.065Z,1.20
2022-08-28T23:18:08.820Z,1.20
2022-08-28T23:20:35.744Z,1.00
2022-08-28T23:23:02.413Z,1.30
2022-08-28T23:25:30.329Z,1.27
2022-08-28T23:27:56.921Z,1.60
2022-08-28T23:30:24.348Z,1.83
2022-08-28T23:32:51.048Z,1.63
2022-08-28T23:35:18.909Z,1.40
2022-08-28T23:37:48.896Z,1.55
2022-08-28T23:40:21.589Z,1.40
2022-08-28T23:42:49.918Z,1.42
2022-08-28T23:45:17.216Z,1.45
2022-08-28T23:47:44.510Z,1.40
2022-08-28T23:50:13.684Z,1.52
2022-08-28T23:52:40.711Z,1.48
2022-08-28T23:55:10.629Z,1.10
2022-08-28T23:57:37.299Z,2.15
